createdAt,value
2023-02-07T00:01:55.008Z,35.75
2023-02-07T00:04:40.274Z,59.00
2023-02-07T00:07:26.236Z,36.10
2023-02-07T00:10:12.513Z,34.65
2023-02-07T00:12:58.565Z,47.78
2023-02-07T00:15:44.403Z,33.03
2023-02-07T00:18:30.388Z,30.40
2023-02-07T00:21:18.903Z,41.03
2023-02-07T00:24:04.778Z,29.45
2023-02-07T00:26:52.289Z,33.33
2023-02-07T00:29:37.843Z,30.48
2023-02-07T00:32:24.820Z,20.80
2023-02-07T00:35:10.826Z,23.35
2023-02-07T00:37:55.967Z,24.40
2023-02-07T00:40:41.507Z,20.40
2023-02-07T00:43:29.918Z,35.72
2023-02-07T00:46:17.372Z,20.25
2023-02-07T00:49:03.416Z,26.38
2023-02-07T00:51:48.979Z,17.83
2023-02-07T00:54:35.040Z,19.30
2023-02-07T00:57:20.916Z,24.83
2023-02-07T01:00:11.948Z,18.35
2023-02-07T01:03:14.561Z,51.28
2023-02-07T01:06:02.635Z,26.85
2023-02-07T01:08:48.696Z,15.93
2023-02-07T01:11:34.083Z,17.45
2023-02-07T01:14:19.820Z,28.60
2023-02-07T01:17:05.711Z,24.98
2023-02-07T01:19:59.121Z,24.98
2023-02-07T01:22:45.104Z,32.20
2023-02-07T01:25:31.135Z,23.10
2023-02-07T01:28:16.742Z,16.55
2023-02-07T01:31:10.118Z,36.63
2023-02-07T01:33:57.301Z,29.08
2023-02-07T01:36:43.601Z,26.02
2023-02-07T01:39:31.143Z,21.83
2023-02-07T01:42:17.954Z,17.40
2023-02-07T01:45:13.388Z,43.28
2023-02-07T01:48:02.034Z,91.20
2023-02-07T01:50:48.844Z,107.82
2023-02-07T01:53:37.208Z,95.57
2023-02-07T01:56:31.280Z,41.90
2023-02-07T01:59:18.967Z,27.25
2023-02-07T02:02:05.436Z,50.50
2023-02-07T02:04:52.282Z,22.95
2023-02-07T02:07:38.238Z,42.75
2023-02-07T02:10:27.824Z,29.80
2023-02-07T02:13:23.688Z,25.20
2023-02-07T02:16:17.443Z,19.70
2023-02-07T02:19:21.899Z,33.88
2023-02-07T02:22:24.773Z,22.52
2023-02-07T02:25:38.422Z,23.25
2023-02-07T02:29:06.726Z,25.60
2023-02-07T02:32:23.340Z,22.98
2023-02-07T02:35:22.435Z,13.90
2023-02-07T02:38:26.076Z,21.40
2023-02-07T02:41:15.866Z,28.63
2023-02-07T02:44:12.006Z,30.85
2023-02-07T02:46:59.110Z,22.95
2023-02-07T02:49:44.951Z,24.80
2023-02-07T02:52:48.550Z,37.08
2023-02-07T02:55:53.979Z,22.88
2023-02-07T02:58:43.825Z,20.58
2023-02-07T03:01:36.084Z,17.98
2023-02-07T03:04:43.754Z,27.30
2023-02-07T03:07:46.211Z,23.35
2023-02-07T03:10:40.483Z,22.00
2023-02-07T03:13:47.540Z,15.82
2023-02-07T03:16:40.091Z,9.15
2023-02-07T03:19:41.057Z,35.85
2023-02-07T03:22:28.646Z,17.25
2023-02-07T03:25:15.984Z,23.15
2023-02-07T03:28:02.429Z,34.63
2023-02-07T03:30:51.340Z,26.88
2023-02-07T03:33:37.860Z,36.85
2023-02-07T03:36:28.857Z,29.10
2023-02-07T03:39:14.273Z,35.33
2023-02-07T03:42:06.456Z,31.02
2023-02-07T03:44:54.886Z,28.85
2023-02-07T03:47:40.618Z,44.38
2023-02-07T03:50:26.228Z,36.80
2023-02-07T03:53:11.571Z,33.53
2023-02-07T03:55:57.131Z,20.65
2023-02-07T03:58:42.455Z,34.40
2023-02-07T04:01:28.290Z,23.85
2023-02-07T04:04:14.046Z,31.15
2023-02-07T04:06:59.646Z,24.98
2023-02-07T04:09:45.638Z,22.10
2023-02-07T04:12:32.846Z,44.83
2023-02-07T04:15:18.560Z,24.80
2023-02-07T04:18:04.229Z,18.13
2023-02-07T04:20:50.114Z,16.48
2023-02-07T04:23:36.066Z,40.55
2023-02-07T04:26:21.444Z,20.70
2023-02-07T04:29:08.086Z,22.10
2023-02-07T04:31:53.518Z,17.95
2023-02-07T04:34:39.308Z,24.00
2023-02-07T04:37:24.859Z,19.50
2023-02-07T04:40:10.789Z,38.25
2023-02-07T04:42:56.645Z,22.55
2023-02-07T04:45:42.382Z,10.60
2023-02-07T04:48:28.270Z,13.00
2023-02-07T04:51:14.217Z,33.75
2023-02-07T04:53:59.908Z,21.27
2023-02-07T04:56:46.037Z,31.80
2023-02-07T04:59:31.697Z,22.90
2023-02-07T05:02:17.031Z,35.53
2023-02-07T05:05:02.528Z,23.27
2023-02-07T05:07:48.228Z,27.95
2023-02-07T05:10:34.118Z,40.70
2023-02-07T05:13:19.483Z,39.38
2023-02-07T05:16:05.068Z,122.47
2023-02-07T05:18:50.956Z,64.57
2023-02-07T05:21:36.726Z,63.33
2023-02-07T05:24:22.712Z,42.35
2023-02-07T05:27:08.160Z,86.90
2023-02-07T05:29:53.547Z,48.13
2023-02-07T05:32:57.692Z,31.95
2023-02-07T05:35:44.724Z,17.38
2023-02-07T05:38:45.483Z,39.03
2023-02-07T05:41:31.577Z,10.52
2023-02-07T05:44:17.092Z,19.55
2023-02-07T05:47:03.259Z,17.88
2023-02-07T05:49:48.728Z,30.38
2023-02-07T05:52:35.776Z,28.42
2023-02-07T05:55:22.725Z,31.70
2023-02-07T05:58:08.157Z,30.63
2023-02-07T06:00:57.745Z,45.95
2023-02-07T06:03:43.647Z,25.05
2023-02-07T06:06:29.621Z,26.73
2023-02-07T06:09:15.403Z,33.00
2023-02-07T06:12:01.134Z,41.90
2023-02-07T06:14:47.315Z,39.90
2023-02-07T06:17:32.707Z,42.78
2023-02-07T06:20:18.083Z,44.20
2023-02-07T06:23:04.370Z,34.60
2023-02-07T06:25:49.655Z,28.85
2023-02-07T06:28:35.515Z,49.95
2023-02-07T06:31:21.209Z,69.10
2023-02-07T06:34:07.724Z,54.50
2023-02-07T06:36:53.262Z,80.60
2023-02-07T06:39:39.308Z,45.35
2023-02-07T06:42:24.818Z,28.77
2023-02-07T06:45:10.201Z,40.25
2023-02-07T06:47:55.647Z,51.08
2023-02-07T06:50:41.177Z,61.28
2023-02-07T06:53:26.703Z,47.30
2023-02-07T06:56:12.272Z,46.35
2023-02-07T06:58:57.430Z,46.85
2023-02-07T07:01:42.855Z,84.18
2023-02-07T07:04:28.627Z,70.57
2023-02-07T07:07:14.157Z,131.82
2023-02-07T07:09:59.659Z,54.35
2023-02-07T07:12:47.278Z,42.40
2023-02-07T07:15:33.128Z,31.85
2023-02-07T07:18:18.622Z,100.07
2023-02-07T07:21:05.073Z,69.28
2023-02-07T07:23:50.854Z,132.35
2023-02-07T07:26:48.445Z,130.68
2023-02-07T07:29:35.029Z,207.32
2023-02-07T07:32:33.310Z,95.35
2023-02-07T07:35:20.490Z,60.78
2023-02-07T07:38:06.020Z,123.55
2023-02-07T07:40:51.532Z,108.70
2023-02-07T07:43:36.782Z,208.98
2023-02-07T07:46:22.074Z,165.75
2023-02-07T07:49:08.348Z,129.50
2023-02-07T07:51:53.723Z,144.52
2023-02-07T07:54:39.455Z,196.18
2023-02-07T07:57:28.154Z,238.95
2023-02-07T08:00:14.179Z,153.68
2023-02-07T08:02:59.463Z,133.20
2023-02-07T08:05:45.289Z,131.15
2023-02-07T08:08:30.692Z,204.02
2023-02-07T08:11:16.366Z,152.18
2023-02-07T08:14:01.668Z,170.48
2023-02-07T08:16:46.961Z,155.05
2023-02-07T08:19:32.499Z,151.63
2023-02-07T08:22:17.922Z,167.60
2023-02-07T08:25:03.927Z,138.13
2023-02-07T08:27:49.770Z,115.57
2023-02-07T08:30:35.132Z,137.63
2023-02-07T08:33:20.654Z,112.70
2023-02-07T08:36:09.300Z,145.93
2023-02-07T11:45:13.839Z,120.07
2023-02-07T11:47:59.953Z,95.22
2023-02-07T11:50:49.373Z,101.22
2023-02-07T11:53:41.014Z,96.97
2023-02-07T11:56:31.537Z,89.68
2023-02-07T11:59:20.606Z,110.32
2023-02-07T12:02:31.710Z,92.57
2023-02-07T12:05:23.307Z,93.80
2023-02-07T12:08:20.476Z,80.53
2023-02-07T12:15:24.021Z,68.35
2023-02-07T12:18:31.915Z,87.60
2023-02-07T12:30:13.902Z,60.10
2023-02-07T12:33:38.129Z,52.13
2023-02-07T12:36:36.995Z,70.13
2023-02-07T12:39:38.143Z,67.38
2023-02-07T12:42:40.644Z,38.08
2023-02-07T12:45:47.094Z,70.18
2023-02-07T12:48:47.670Z,26.95
2023-02-07T12:56:35.438Z,41.05
2023-02-07T12:59:27.668Z,59.83
2023-02-07T13:02:34.813Z,53.95
2023-02-07T13:09:04.347Z,39.45
2023-02-07T13:12:08.243Z,40.20
2023-02-07T13:14:59.665Z,33.28
2023-02-07T13:17:45.090Z,58.00
2023-02-07T13:20:51.687Z,44.55
2023-02-07T13:32:34.112Z,58.33
2023-02-07T13:35:24.375Z,52.38
2023-02-07T13:38:31.651Z,50.63
2023-02-07T13:42:32.208Z,46.13
2023-02-07T13:45:50.749Z,49.75
2023-02-07T13:48:51.024Z,19.85
2023-02-07T13:52:01.296Z,18.45
2023-02-07T13:55:03.107Z,15.48
2023-02-07T13:58:07.555Z,48.95
2023-02-07T14:00:53.232Z,11.30
2023-02-07T14:03:39.219Z,40.38
2023-02-07T14:06:30.072Z,35.00
2023-02-07T14:09:15.272Z,65.47
2023-02-07T14:12:02.098Z,71.15
2023-02-07T14:15:01.464Z,76.28
2023-02-07T14:18:05.803Z,76.22
2023-02-07T14:21:00.704Z,49.88
2023-02-07T14:23:52.198Z,60.55
2023-02-07T14:26:37.956Z,49.88
2023-02-07T14:29:23.308Z,49.20
2023-02-07T14:32:15.320Z,68.85
2023-02-07T14:35:26.813Z,47.75
2023-02-07T14:38:29.231Z,43.13
2023-02-07T14:41:16.363Z,74.35
2023-02-07T14:44:09.475Z,70.45
2023-02-07T14:46:58.095Z,43.95
2023-02-07T14:52:33.041Z,48.15
2023-02-07T14:55:22.281Z,56.83
2023-02-07T14:58:12.982Z,254.45
2023-02-07T15:01:00.081Z,60.33
2023-02-07T15:03:46.047Z,55.30
2023-02-07T15:06:43.605Z,68.75
2023-02-07T15:09:29.459Z,61.53
2023-02-07T15:12:27.938Z,96.95
2023-02-07T15:15:24.649Z,126.00
2023-02-07T15:18:14.041Z,62.88
2023-02-07T15:21:00.397Z,55.83
2023-02-07T15:24:03.272Z,55.70
2023-02-07T15:26:50.492Z,58.90
2023-02-07T15:29:38.046Z,72.38
2023-02-07T15:32:25.743Z,53.80
2023-02-07T15:35:20.028Z,74.82
2023-02-07T15:38:21.712Z,73.00
2023-02-07T15:41:07.664Z,77.28
2023-02-07T15:43:59.261Z,88.32
2023-02-07T15:46:51.199Z,81.97
2023-02-07T15:49:40.798Z,71.10
2023-02-07T15:52:36.242Z,69.60
2023-02-07T15:55:33.824Z,60.00
2023-02-07T15:58:29.141Z,78.18
2023-02-07T16:01:17.154Z,66.38
2023-02-07T16:04:03.502Z,70.30
2023-02-07T16:07:05.125Z,64.82
2023-02-07T16:09:53.464Z,56.05
2023-02-07T16:15:34.844Z,49.60
2023-02-07T16:18:39.890Z,60.78
2023-02-07T16:21:27.074Z,44.15
2023-02-07T16:24:21.243Z,56.17
2023-02-07T16:27:07.539Z,50.45
2023-02-07T16:29:57.567Z,56.17
2023-02-07T16:32:47.519Z,52.50
2023-02-07T16:35:34.027Z,44.00
2023-02-07T16:38:20.481Z,52.83
2023-02-07T16:41:06.532Z,49.42
2023-02-07T16:43:52.254Z,42.13
2023-02-07T16:46:38.670Z,43.75
2023-02-07T16:49:26.514Z,52.17
2023-02-07T16:52:12.338Z,50.17
2023-02-07T16:54:58.126Z,51.97
2023-02-07T16:57:44.589Z,40.83
2023-02-07T17:00:30.131Z,144.48
2023-02-07T17:03:15.994Z,66.00
2023-02-07T17:06:01.801Z,117.90
2023-02-07T17:08:48.114Z,108.75
2023-02-07T17:11:33.457Z,49.83
2023-02-07T17:14:19.278Z,52.58
2023-02-07T17:17:04.796Z,46.05
2023-02-07T17:19:51.633Z,42.72
2023-02-07T17:22:38.028Z,48.22
2023-02-07T17:25:26.163Z,38.90
2023-02-07T17:28:15.997Z,43.22
2023-02-07T17:31:01.911Z,41.53
2023-02-07T17:33:57.123Z,54.72
2023-02-07T17:36:47.126Z,37.22
2023-02-07T17:39:32.841Z,43.65
2023-02-07T17:42:18.152Z,38.45
2023-02-07T17:45:03.988Z,40.00
2023-02-07T17:47:49.958Z,21.20
2023-02-07T17:50:40.770Z,26.75
2023-02-07T17:53:26.743Z,33.25
2023-02-07T17:56:33.152Z,44.58
2023-02-07T17:59:24.569Z,35.45
2023-02-07T18:02:10.842Z,41.13
2023-02-07T18:04:58.180Z,35.17
2023-02-07T18:07:46.219Z,29.85
2023-02-07T18:10:35.276Z,35.30
2023-02-07T18:13:21.399Z,30.23
2023-02-07T18:16:08.453Z,31.73
2023-02-07T18:18:55.649Z,27.33
2023-02-07T18:21:41.513Z,34.90
2023-02-07T18:24:26.709Z,31.52
2023-02-07T18:27:17.310Z,35.03
2023-02-07T18:30:05.111Z,26.02
2023-02-07T18:32:50.885Z,37.15
2023-02-07T18:35:36.522Z,26.17
2023-02-07T18:38:22.622Z,30.23
2023-02-07T18:41:13.444Z,33.42
2023-02-07T18:43:58.923Z,35.15
2023-02-07T18:46:44.419Z,33.67
2023-02-07T18:49:29.928Z,36.47
2023-02-07T18:52:15.905Z,29.88
2023-02-07T18:55:13.992Z,27.67
2023-02-07T18:58:32.846Z,36.17
2023-02-07T19:01:47.530Z,37.80
2023-02-07T19:04:55.196Z,36.22
2023-02-07T19:11:50.858Z,39.38
2023-02-07T19:14:52.540Z,34.85
2023-02-07T19:17:38.291Z,32.67
2023-02-07T19:20:23.959Z,17.67
2023-02-07T19:23:09.458Z,33.92
2023-02-07T19:25:55.073Z,18.27
2023-02-07T19:28:41.070Z,5.80
2023-02-07T19:31:29.338Z,40.72
2023-02-07T19:34:15.479Z,39.88
2023-02-07T19:37:02.314Z,36.67
2023-02-07T19:40:01.619Z,37.92
2023-02-07T19:42:48.031Z,18.13
2023-02-07T19:45:34.194Z,34.28
2023-02-07T19:48:21.253Z,30.45
2023-02-07T19:51:09.118Z,36.83
2023-02-07T19:53:55.505Z,28.38
2023-02-07T19:56:42.450Z,31.17
2023-02-07T19:59:28.539Z,39.85
2023-02-07T20:02:14.920Z,37.70
2023-02-07T20:05:05.892Z,34.08
2023-02-07T20:07:53.828Z,35.03
2023-02-07T20:10:46.488Z,39.53
2023-02-07T20:14:11.381Z,34.38
2023-02-07T20:16:57.094Z,37.53
2023-02-07T20:19:44.926Z,41.53
2023-02-07T20:23:00.379Z,35.40
2023-02-07T20:25:48.655Z,38.90
2023-02-07T20:33:20.145Z,34.88
2023-02-07T20:36:11.571Z,34.47
2023-02-07T20:47:32.220Z,36.75
2023-02-07T20:50:17.993Z,38.72
2023-02-07T20:53:03.854Z,38.30
2023-02-07T20:55:49.987Z,38.72
2023-02-07T20:58:36.098Z,33.40
2023-02-07T21:01:23.831Z,38.35
2023-02-07T21:04:09.583Z,39.75
2023-02-07T21:06:55.269Z,38.50
2023-02-07T21:09:41.097Z,43.83
2023-02-07T21:12:27.364Z,43.10
2023-02-07T21:15:17.070Z,35.75
2023-02-07T21:18:06.691Z,39.40
2023-02-07T21:20:58.158Z,37.83
2023-02-07T21:23:47.139Z,42.42
2023-02-07T21:26:32.752Z,35.13
2023-02-07T21:29:18.675Z,35.38
2023-02-07T21:32:04.389Z,42.50
2023-02-07T21:34:50.253Z,40.85
2023-02-07T21:37:35.901Z,37.70
2023-02-07T21:40:21.507Z,39.28
2023-02-07T21:46:42.413Z,36.20
2023-02-07T21:49:27.965Z,41.08
2023-02-07T21:52:13.634Z,40.63
2023-02-07T21:54:59.619Z,37.45
2023-02-07T21:57:45.389Z,45.03
2023-02-07T22:00:30.780Z,35.75
2023-02-07T22:03:16.725Z,35.38
2023-02-07T22:06:02.465Z,44.17
2023-02-07T22:08:53.965Z,40.90
2023-02-07T22:11:39.408Z,41.45
2023-02-07T22:14:25.901Z,45.17
2023-02-07T22:17:12.349Z,84.38
2023-02-07T22:19:57.994Z,111.80
2023-02-07T22:22:43.362Z,192.57
2023-02-07T22:25:29.574Z,162.85
2023-02-07T22:28:15.048Z,159.93
2023-02-07T22:31:01.379Z,119.65
2023-02-07T22:33:48.533Z,118.78
2023-02-07T22:36:35.627Z,119.85
2023-02-07T22:39:21.149Z,146.88
2023-02-07T22:42:06.759Z,135.70
2023-02-07T22:44:52.125Z,131.20
2023-02-07T22:47:37.598Z,145.50
2023-02-07T22:50:23.138Z,134.18
2023-02-07T22:53:11.512Z,121.07
2023-02-07T22:58:45.921Z,100.05
2023-02-07T23:01:34.431Z,83.15
2023-02-07T23:04:21.648Z,58.83
2023-02-07T23:07:07.542Z,49.20
2023-02-07T23:09:54.188Z,53.70
2023-02-07T23:12:39.717Z,53.53
2023-02-07T23:15:26.810Z,44.92
2023-02-07T23:18:13.109Z,49.13
2023-02-07T23:20:58.862Z,44.15
2023-02-07T23:23:44.921Z,51.58
2023-02-07T23:26:30.558Z,68.97
2023-02-07T23:29:16.300Z,59.20
2023-02-07T23:32:02.013Z,60.53
2023-02-07T23:34:47.372Z,60.88
2023-02-07T23:37:32.976Z,47.08
2023-02-07T23:40:18.813Z,47.28
2023-02-07T23:43:04.820Z,54.92
2023-02-07T23:45:50.796Z,50.55
2023-02-07T23:48:38.517Z,45.80
2023-02-07T23:51:25.507Z,44.67
2023-02-07T23:54:12.131Z,51.60
2023-02-07T23:56:57.446Z,48.25
2023-02-07T23:59:43.258Z,44.38
